createdAt,value
2023-01-23T00:01:30.989Z,33.97
2023-01-23T00:03:57.567Z,35.88
2023-01-23T00:06:24.912Z,38.78
2023-01-23T00:08:51.730Z,35.25
2023-01-23T00:11:22.477Z,31.27
2023-01-23T00:13:48.964Z,34.97
2023-01-23T00:16:18.596Z,35.97
2023-01-23T00:18:45.562Z,35.90
2023-01-23T00:21:15.291Z,31.33
2023-01-23T00:23:46.163Z,33.90
2023-01-23T00:26:15.156Z,38.07
2023-01-23T00:28:45.137Z,32.97
2023-01-23T00:31:25.767Z,36.50
2023-01-23T00:33:58.046Z,33.03
2023-01-23T00:36:28.132Z,36.92
2023-01-23T00:38:55.060Z,37.25
2023-01-23T00:41:21.553Z,42.90
2023-01-23T00:43:48.144Z,39.00
2023-01-23T00:46:14.694Z,34.33
2023-01-23T00:48:41.223Z,40.88
2023-01-23T00:51:07.807Z,41.30
2023-01-23T00:53:34.431Z,38.15
2023-01-23T00:56:00.895Z,35.20
2023-01-23T00:58:27.427Z,38.47
2023-01-23T01:00:54.107Z,34.72
2023-01-23T01:03:20.862Z,39.90
2023-01-23T01:05:47.543Z,30.77
2023-01-23T01:08:14.006Z,37.33
2023-01-23T01:10:41.656Z,36.80
2023-01-23T01:13:09.981Z,36.70
2023-01-23T01:15:38.052Z,34.58
2023-01-23T01:18:04.878Z,35.42
2023-01-23T01:20:31.450Z,34.72
2023-01-23T01:22:59.190Z,35.05
2023-01-23T01:25:26.531Z,35.90
2023-01-23T01:27:54.266Z,32.45
2023-01-23T01:30:21.231Z,35.20
2023-01-23T01:32:48.018Z,38.72
2023-01-23T01:35:14.481Z,32.88
2023-01-23T01:37:41.681Z,32.60
2023-01-23T01:40:13.424Z,33.30
2023-01-23T01:45:48.322Z,29.95
2023-01-23T01:48:15.337Z,29.80
2023-01-23T01:50:42.036Z,28.67
2023-01-23T01:53:09.589Z,31.52
2023-01-23T01:55:37.347Z,32.15
2023-01-23T01:58:03.926Z,29.67
2023-01-23T02:00:30.732Z,31.73
2023-01-23T02:02:59.652Z,27.65
2023-01-23T02:05:29.852Z,29.65
2023-01-23T02:08:05.349Z,35.25
2023-01-23T02:10:32.793Z,29.63
2023-01-23T02:13:25.526Z,33.60
2023-01-23T02:15:52.919Z,31.48
2023-01-23T02:18:21.221Z,31.65
2023-01-23T02:20:49.005Z,35.55
2023-01-23T02:23:41.536Z,29.73
2023-01-23T02:26:13.854Z,33.08
2023-01-23T02:28:46.234Z,32.85
2023-01-23T02:31:16.494Z,31.42
2023-01-23T02:33:48.900Z,30.15
2023-01-23T02:36:18.315Z,32.15
2023-01-23T02:39:12.752Z,30.95
2023-01-23T02:41:42.183Z,37.33
2023-01-23T02:44:25.373Z,32.72
2023-01-23T02:46:57.666Z,30.67
2023-01-23T02:49:27.333Z,29.77
2023-01-23T02:51:54.757Z,31.40
2023-01-23T02:54:22.359Z,31.77
2023-01-23T02:56:49.210Z,33.03
2023-01-23T02:59:16.595Z,28.63
2023-01-23T03:01:43.073Z,30.55
2023-01-23T03:04:09.545Z,30.70
2023-01-23T03:06:38.626Z,28.63
2023-01-23T03:09:10.873Z,28.05
2023-01-23T03:11:40.090Z,30.30
2023-01-23T03:14:10.039Z,34.83
2023-01-23T03:16:38.480Z,29.10
2023-01-23T03:19:07.744Z,27.13
2023-01-23T03:21:40.271Z,32.95
2023-01-23T03:24:13.758Z,29.15
2023-01-23T03:26:44.313Z,33.25
2023-01-23T03:29:15.283Z,28.93
2023-01-23T03:31:42.004Z,28.98
2023-01-23T03:34:08.496Z,34.50
2023-01-23T03:36:36.060Z,31.42
2023-01-23T03:39:07.473Z,28.48
2023-01-23T03:41:33.964Z,32.20
2023-01-23T03:44:03.239Z,28.73
2023-01-23T03:46:30.657Z,30.05
2023-01-23T03:48:57.091Z,30.42
2023-01-23T03:51:23.938Z,31.00
2023-01-23T03:53:50.668Z,30.63
2023-01-23T03:56:17.203Z,26.08
2023-01-23T03:58:43.818Z,27.20
2023-01-23T04:01:13.083Z,27.17
2023-01-23T04:03:42.069Z,28.08
2023-01-23T04:06:08.588Z,23.98
2023-01-23T04:08:36.175Z,30.20
2023-01-23T04:11:07.957Z,27.58
2023-01-23T04:13:34.665Z,26.55
2023-01-23T04:16:02.657Z,26.92
2023-01-23T04:18:29.532Z,24.27
2023-01-23T04:20:56.574Z,27.00
2023-01-23T04:23:24.090Z,26.42
2023-01-23T04:25:51.945Z,23.52
2023-01-23T04:28:19.498Z,23.63
2023-01-23T04:30:50.224Z,25.65
2023-01-23T04:33:23.899Z,24.63
2023-01-23T04:35:56.574Z,22.88
2023-01-23T04:38:26.401Z,26.38
2023-01-23T04:40:53.235Z,25.00
2023-01-23T04:43:20.198Z,25.60
2023-01-23T04:45:51.797Z,23.25
2023-01-23T04:48:34.121Z,31.38
2023-01-23T04:51:00.732Z,26.83
2023-01-23T04:53:27.478Z,24.10
2023-01-23T04:55:59.668Z,23.92
2023-01-23T04:58:26.352Z,28.42
2023-01-23T05:01:02.742Z,22.58
2023-01-23T05:03:31.951Z,28.20
2023-01-23T05:05:58.572Z,22.48
2023-01-23T05:08:26.391Z,28.00
2023-01-23T05:11:06.875Z,22.80
2023-01-23T05:13:33.435Z,27.65
2023-01-23T05:16:00.005Z,24.55
2023-01-23T05:18:27.697Z,29.08
2023-01-23T05:20:55.885Z,23.20
2023-01-23T05:23:22.360Z,24.13
2023-01-23T05:25:50.918Z,24.15
2023-01-23T05:28:17.471Z,21.67
2023-01-23T05:30:48.545Z,26.65
2023-01-23T05:33:21.882Z,25.83
2023-01-23T05:35:48.737Z,26.58
2023-01-23T05:38:15.213Z,24.00
2023-01-23T05:40:43.072Z,21.38
2023-01-23T05:43:15.408Z,23.50
2023-01-23T05:46:17.398Z,23.67
2023-01-23T05:48:51.720Z,22.13
2023-01-23T05:51:20.222Z,24.80
2023-01-23T05:53:47.100Z,23.50
2023-01-23T05:56:14.049Z,24.92
2023-01-23T05:58:59.017Z,23.77
2023-01-23T06:01:39.017Z,25.08
2023-01-23T06:04:24.093Z,26.02
2023-01-23T06:07:05.569Z,23.13
2023-01-23T06:09:33.046Z,25.23
2023-01-23T06:11:59.498Z,29.85
2023-01-23T06:14:26.057Z,26.13
2023-01-23T06:16:52.622Z,26.90
2023-01-23T06:19:20.462Z,23.13
2023-01-23T06:21:46.954Z,23.95
2023-01-23T06:24:13.537Z,26.60
2023-01-23T06:26:39.990Z,26.90
2023-01-23T06:29:06.499Z,27.27
2023-01-23T06:31:33.098Z,25.77
2023-01-23T06:34:01.854Z,25.25
2023-01-23T06:36:33.382Z,25.50
2023-01-23T06:39:00.731Z,23.02
2023-01-23T06:41:33.883Z,24.33
2023-01-23T06:44:03.413Z,23.13
2023-01-23T06:46:29.929Z,21.67
2023-01-23T06:48:57.376Z,28.00
2023-01-23T06:51:23.970Z,27.83
2023-01-23T06:53:51.067Z,25.10
2023-01-23T06:56:17.915Z,43.53
2023-01-23T06:58:46.064Z,27.08
2023-01-23T07:01:22.396Z,25.13
2023-01-23T07:04:07.229Z,22.90
2023-01-23T07:06:33.918Z,31.73
2023-01-23T07:09:00.739Z,29.38
2023-01-23T07:11:28.177Z,33.42
2023-01-23T07:13:56.457Z,29.00
2023-01-23T07:16:23.629Z,29.17
2023-01-23T07:18:50.215Z,30.67
2023-01-23T07:21:17.829Z,25.65
2023-01-23T07:23:44.229Z,25.90
2023-01-23T07:26:10.873Z,25.10
2023-01-23T07:28:38.443Z,25.05
2023-01-23T07:31:06.143Z,25.27
2023-01-23T07:33:32.717Z,26.42
2023-01-23T07:35:59.495Z,28.77
2023-01-23T07:38:26.125Z,27.23
2023-01-23T07:40:52.964Z,27.08
2023-01-23T07:43:19.526Z,24.48
2023-01-23T07:45:46.400Z,28.58
2023-01-23T07:48:12.959Z,30.30
2023-01-23T07:50:39.477Z,27.35
2023-01-23T07:53:06.485Z,26.75
2023-01-23T07:55:33.952Z,24.13
2023-01-23T07:58:00.519Z,24.25
2023-01-23T08:00:29.589Z,36.83
2023-01-23T08:02:56.804Z,33.25
2023-01-23T08:05:23.657Z,42.92
2023-01-23T08:07:53.821Z,41.08
2023-01-23T08:10:24.413Z,47.88
2023-01-23T08:12:50.900Z,65.65
2023-01-23T08:15:17.465Z,66.78
2023-01-23T08:17:43.913Z,51.33
2023-01-23T08:20:10.816Z,42.97
2023-01-23T08:22:37.354Z,45.45
2023-01-23T08:25:04.228Z,53.17
2023-01-23T08:27:30.658Z,52.75
2023-01-23T08:29:57.110Z,51.40
2023-01-23T08:32:23.538Z,50.70
2023-01-23T08:34:50.016Z,42.78
2023-01-23T08:37:16.466Z,50.47
2023-01-23T08:39:42.972Z,47.47
2023-01-23T08:42:09.439Z,45.55
2023-01-23T08:44:35.888Z,37.95
2023-01-23T08:47:03.176Z,35.83
2023-01-23T08:49:29.670Z,41.42
2023-01-23T08:51:56.119Z,39.40
2023-01-23T08:54:22.594Z,35.65
2023-01-23T08:56:49.085Z,34.45
2023-01-23T08:59:15.522Z,35.13
2023-01-23T09:01:42.020Z,32.47
2023-01-23T09:04:08.443Z,26.20
2023-01-23T09:06:34.950Z,25.35
2023-01-23T09:09:01.376Z,27.42
2023-01-23T09:11:27.877Z,29.23
2023-01-23T09:13:54.349Z,22.83
2023-01-23T09:16:20.933Z,26.40
2023-01-23T09:18:47.388Z,27.58
2023-01-23T09:21:16.155Z,23.05
2023-01-23T09:23:43.144Z,21.92
2023-01-23T09:26:11.714Z,21.42
2023-01-23T09:28:39.949Z,22.58
2023-01-23T09:31:08.131Z,20.80
2023-01-23T09:33:35.672Z,18.00
2023-01-23T09:36:02.973Z,17.85
2023-01-23T09:38:29.731Z,18.27
2023-01-23T09:40:57.953Z,19.55
2023-01-23T09:43:35.643Z,16.25
2023-01-23T09:46:28.208Z,16.58
2023-01-23T09:49:19.647Z,17.50
2023-01-23T09:52:13.809Z,18.92
2023-01-23T09:54:45.953Z,19.23
2023-01-23T09:57:39.127Z,18.15
2023-01-23T10:00:15.345Z,25.23
2023-01-23T10:02:45.426Z,23.95
2023-01-23T10:05:16.692Z,19.85
2023-01-23T10:08:12.250Z,19.60
2023-01-23T10:10:56.405Z,19.73
2023-01-23T10:13:40.469Z,19.42
2023-01-23T10:16:21.352Z,23.00
2023-01-23T10:18:58.523Z,20.95
2023-01-23T10:21:43.513Z,20.10
2023-01-23T10:24:49.359Z,20.23
2023-01-23T10:27:33.862Z,37.88
2023-01-23T10:30:26.617Z,23.90
2023-01-23T10:33:01.559Z,21.08
2023-01-23T10:35:49.122Z,17.20
2023-01-23T10:38:34.003Z,15.63
2023-01-23T10:41:00.588Z,17.17
2023-01-23T10:43:27.356Z,17.33
2023-01-23T10:45:53.914Z,14.82
2023-01-23T10:48:32.421Z,16.33
2023-01-23T10:51:00.303Z,15.95
2023-01-23T10:53:27.339Z,16.33
2023-01-23T10:55:58.251Z,16.38
2023-01-23T10:58:39.323Z,18.77
2023-01-23T11:01:18.877Z,17.60
2023-01-23T11:03:45.817Z,17.65
2023-01-23T11:06:18.114Z,14.18
2023-01-23T11:09:02.772Z,15.02
2023-01-23T11:11:31.515Z,14.20
2023-01-23T11:14:11.034Z,16.27
2023-01-23T11:16:38.323Z,17.10
2023-01-23T11:19:09.369Z,19.27
2023-01-23T11:21:38.893Z,17.73
2023-01-23T11:24:27.807Z,15.95
2023-01-23T11:27:14.885Z,15.70
2023-01-23T11:30:03.336Z,16.92
2023-01-23T11:32:35.228Z,13.48
2023-01-23T11:35:27.280Z,12.85
2023-01-23T11:37:57.135Z,17.90
2023-01-23T11:40:23.975Z,14.90
2023-01-23T11:42:50.424Z,15.40
2023-01-23T11:45:35.461Z,14.57
2023-01-23T11:48:26.195Z,13.07
2023-01-23T11:51:16.091Z,18.83
2023-01-23T11:54:03.910Z,13.65
2023-01-23T11:56:52.452Z,12.20
2023-01-23T11:59:31.196Z,12.27
2023-01-23T12:02:12.712Z,11.88
2023-01-23T12:04:57.828Z,12.55
2023-01-23T12:07:25.259Z,14.85
2023-01-23T12:10:13.471Z,13.68
2023-01-23T12:12:59.262Z,14.07
2023-01-23T12:15:37.486Z,15.40
2023-01-23T12:18:19.246Z,15.95
2023-01-23T12:23:52.776Z,15.32
2023-01-23T12:26:21.481Z,17.02
2023-01-23T12:28:57.239Z,15.45
2023-01-23T12:31:45.156Z,16.45
2023-01-23T12:34:23.948Z,14.43
2023-01-23T12:37:11.718Z,17.40
2023-01-23T12:40:18.551Z,16.10
2023-01-23T12:43:02.765Z,13.05
2023-01-23T12:45:31.800Z,12.90
2023-01-23T12:48:18.369Z,13.90
2023-01-23T12:51:06.666Z,8.90
2023-01-23T12:53:38.119Z,10.75
2023-01-23T12:56:31.020Z,15.27
2023-01-23T12:59:19.389Z,8.38
2023-01-23T13:01:52.244Z,10.13
2023-01-23T13:04:59.824Z,11.65
2023-01-23T13:07:38.179Z,13.80
2023-01-23T13:10:24.362Z,12.80
2023-01-23T13:12:56.321Z,11.52
2023-01-23T13:15:39.972Z,9.68
2023-01-23T13:18:24.712Z,11.15
2023-01-23T13:21:00.112Z,11.30
2023-01-23T13:23:31.734Z,11.57
2023-01-23T13:28:48.329Z,12.02
2023-01-23T13:31:38.021Z,8.25
2023-01-23T13:34:16.616Z,10.35
2023-01-23T13:36:53.300Z,9.27
2023-01-23T13:39:27.042Z,9.98
2023-01-23T13:42:11.866Z,10.07
2023-01-23T13:45:16.467Z,9.63
2023-01-23T14:21:40.865Z,14.85
2023-01-23T14:24:21.149Z,10.43
2023-01-23T14:26:52.689Z,13.63
2023-01-23T14:29:25.342Z,13.07
2023-01-23T14:31:53.013Z,8.63
2023-01-23T14:34:24.428Z,11.00
2023-01-23T14:37:06.208Z,8.57
2023-01-23T14:42:05.372Z,9.80
2023-01-23T14:47:00.587Z,9.38
2023-01-23T14:49:31.375Z,15.80
2023-01-23T14:52:06.509Z,11.90
2023-01-23T14:54:36.833Z,9.90
2023-01-23T14:57:05.792Z,8.88
2023-01-23T14:59:38.249Z,9.30
2023-01-23T15:02:27.132Z,8.30
2023-01-23T15:05:11.636Z,11.20
2023-01-23T15:07:57.679Z,8.85
2023-01-23T15:10:30.619Z,17.60
2023-01-23T15:13:11.618Z,10.85
2023-01-23T15:15:44.629Z,9.63
2023-01-23T15:18:26.179Z,9.73
2023-01-23T15:21:26.555Z,13.48
2023-01-23T15:24:09.763Z,12.18
2023-01-23T15:26:38.397Z,15.55
2023-01-23T15:29:25.451Z,9.30
2023-01-23T15:31:54.085Z,13.23
2023-01-23T15:34:27.409Z,11.07
2023-01-23T15:37:13.494Z,14.10
2023-01-23T15:39:50.225Z,12.73
2023-01-23T15:42:16.614Z,14.55
2023-01-23T15:44:43.571Z,15.63
2023-01-23T15:47:10.472Z,13.95
2023-01-23T15:49:39.127Z,13.18
2023-01-23T15:52:17.678Z,18.90
2023-01-23T15:54:44.447Z,15.52
2023-01-23T15:57:13.059Z,14.38
2023-01-23T15:59:40.446Z,17.73
2023-01-23T16:02:28.563Z,15.32
2023-01-23T16:04:56.379Z,12.65
2023-01-23T16:07:25.492Z,17.65
2023-01-23T16:09:52.657Z,15.55
2023-01-23T16:12:20.359Z,13.68
2023-01-23T16:14:47.890Z,19.33
2023-01-23T16:17:17.161Z,16.90
2023-01-23T16:19:44.018Z,14.93
2023-01-23T16:22:15.062Z,15.68
2023-01-23T16:24:42.245Z,17.15
2023-01-23T16:27:16.370Z,14.52
2023-01-23T16:29:42.800Z,16.65
2023-01-23T16:32:09.821Z,17.38
2023-01-23T16:34:36.327Z,17.00
2023-01-23T16:37:03.032Z,19.80
2023-01-23T16:39:32.322Z,19.40
2023-01-23T16:41:59.580Z,19.52
2023-01-23T16:44:26.661Z,28.50
2023-01-23T16:46:53.901Z,25.17
2023-01-23T16:49:20.618Z,24.13
2023-01-23T16:51:58.822Z,24.73
2023-01-23T16:54:25.472Z,24.50
2023-01-23T16:56:54.803Z,22.45
2023-01-23T16:59:35.872Z,23.58
2023-01-23T17:02:17.485Z,20.95
2023-01-23T17:04:44.143Z,20.80
2023-01-23T17:07:18.609Z,22.00
2023-01-23T17:09:45.345Z,24.77
2023-01-23T17:12:15.794Z,23.85
2023-01-23T17:14:44.723Z,19.50
2023-01-23T17:17:15.540Z,24.83
2023-01-23T17:19:43.320Z,22.60
2023-01-23T17:22:21.407Z,25.05
2023-01-23T17:24:48.318Z,26.40
2023-01-23T17:27:15.075Z,26.42
2023-01-23T17:29:41.615Z,27.27
2023-01-23T17:32:32.869Z,32.78
2023-01-23T17:35:02.772Z,26.10
2023-01-23T17:37:30.264Z,26.80
2023-01-23T17:39:56.716Z,29.20
2023-01-23T17:42:23.177Z,35.45
2023-01-23T17:44:49.849Z,34.08
2023-01-23T17:47:16.737Z,31.20
2023-01-23T17:49:50.662Z,33.15
2023-01-23T17:52:17.485Z,28.60
2023-01-23T17:54:43.901Z,27.20
2023-01-23T17:57:10.411Z,31.92
2023-01-23T17:59:36.834Z,28.48
2023-01-23T18:02:03.374Z,26.95
2023-01-23T18:04:29.916Z,29.35
2023-01-23T18:06:56.397Z,34.05
2023-01-23T18:09:22.881Z,27.02
2023-01-23T18:11:49.758Z,29.63
2023-01-23T18:14:41.917Z,28.20
2023-01-23T18:17:32.210Z,34.20
2023-01-23T18:19:58.875Z,27.67
2023-01-23T18:22:25.495Z,34.38
2023-01-23T18:24:52.239Z,31.70
2023-01-23T18:27:26.575Z,33.45
2023-01-23T18:29:56.010Z,36.42
2023-01-23T18:32:43.513Z,31.55
2023-01-23T18:35:48.021Z,36.45
2023-01-23T18:38:25.579Z,33.83
2023-01-23T18:41:01.157Z,35.78
2023-01-23T18:43:35.876Z,33.05
2023-01-23T18:46:02.612Z,39.85
2023-01-23T18:48:29.463Z,36.85
2023-01-23T18:51:20.797Z,35.25
2023-01-23T18:53:59.071Z,38.97
2023-01-23T18:56:56.843Z,34.95
2023-01-23T18:59:37.691Z,35.92
2023-01-23T19:02:41.169Z,28.20
2023-01-23T19:05:14.085Z,34.80
2023-01-23T19:07:40.724Z,34.45
2023-01-23T19:10:13.167Z,40.60
2023-01-23T19:12:58.010Z,33.58
2023-01-23T19:15:43.262Z,41.08
2023-01-23T19:18:16.704Z,34.17
2023-01-23T19:20:50.097Z,30.63
2023-01-23T19:23:38.107Z,34.95
2023-01-23T19:26:05.001Z,31.80
2023-01-23T19:28:31.685Z,30.00
2023-01-23T19:30:58.427Z,35.42
2023-01-23T19:33:24.909Z,37.97
2023-01-23T19:35:51.410Z,32.78
2023-01-23T19:38:17.882Z,30.25
2023-01-23T19:40:45.435Z,29.40
2023-01-23T19:43:16.884Z,43.65
2023-01-23T19:45:47.201Z,38.03
2023-01-23T19:48:14.179Z,38.42
2023-01-23T19:50:40.718Z,33.33
2023-01-23T19:53:07.443Z,31.15
2023-01-23T19:55:36.278Z,35.42
2023-01-23T19:58:02.784Z,32.65
2023-01-23T20:00:32.370Z,45.55
2023-01-23T20:02:59.156Z,35.70
2023-01-23T20:05:26.587Z,34.10
2023-01-23T20:07:53.636Z,29.90
2023-01-23T20:10:20.732Z,32.67
2023-01-23T20:12:49.938Z,36.33
2023-01-23T20:15:16.463Z,37.83
2023-01-23T20:17:42.900Z,30.65
2023-01-23T20:20:10.488Z,38.50
2023-01-23T20:22:42.036Z,37.00
2023-01-23T20:25:12.382Z,41.88
2023-01-23T20:27:39.438Z,37.70
2023-01-23T20:30:08.818Z,35.97
2023-01-23T20:32:35.293Z,35.00
2023-01-23T20:35:01.790Z,35.20
2023-01-23T20:37:28.415Z,35.58
2023-01-23T20:39:55.082Z,34.20
2023-01-23T20:42:21.777Z,39.78
2023-01-23T20:44:48.232Z,40.35
2023-01-23T20:47:14.731Z,34.22
2023-01-23T20:49:41.178Z,34.83
2023-01-23T20:52:07.709Z,37.47
2023-01-23T20:54:34.209Z,41.28
2023-01-23T20:57:00.710Z,39.50
2023-01-23T20:59:27.213Z,35.80
2023-01-23T21:01:53.693Z,43.03
2023-01-23T21:04:21.810Z,37.63
2023-01-23T21:06:48.352Z,32.92
2023-01-23T21:09:15.039Z,37.53
2023-01-23T21:11:41.491Z,36.53
2023-01-23T21:14:08.205Z,38.85
2023-01-23T21:16:34.768Z,47.85
2023-01-23T21:19:01.279Z,44.53
2023-01-23T21:21:27.874Z,47.17
2023-01-23T21:23:54.428Z,51.78
2023-01-23T21:26:23.878Z,48.88
2023-01-23T21:28:51.676Z,41.88
2023-01-23T21:31:31.015Z,36.97
2023-01-23T21:33:59.740Z,43.28
2023-01-23T21:36:26.252Z,51.55
2023-01-23T21:38:53.411Z,39.60
2023-01-23T21:41:20.157Z,39.30
2023-01-23T21:43:47.179Z,39.35
2023-01-23T21:46:13.726Z,37.30
2023-01-23T21:48:40.436Z,39.50
2023-01-23T21:51:15.284Z,42.15
2023-01-23T21:53:43.888Z,42.50
2023-01-23T21:56:11.771Z,39.58
2023-01-23T21:58:38.481Z,40.95
2023-01-23T22:01:12.103Z,42.00
2023-01-23T22:03:38.577Z,37.88
2023-01-23T22:06:05.170Z,41.13
2023-01-23T22:08:32.790Z,37.08
2023-01-23T22:10:59.247Z,43.50
2023-01-23T22:13:25.892Z,44.42
2023-01-23T22:15:52.377Z,41.80
2023-01-23T22:18:18.874Z,38.92
2023-01-23T22:20:45.282Z,44.97
2023-01-23T22:23:11.781Z,47.22
2023-01-23T22:25:38.400Z,38.10
2023-01-23T22:28:04.889Z,37.22
2023-01-23T22:30:31.364Z,42.55
2023-01-23T22:32:57.832Z,41.33
2023-01-23T22:35:24.264Z,43.28
2023-01-23T22:37:50.785Z,42.65
2023-01-23T22:40:17.602Z,40.45
2023-01-23T22:42:44.060Z,41.40
2023-01-23T22:45:11.023Z,46.47
2023-01-23T22:47:37.601Z,49.13
2023-01-23T22:50:04.581Z,48.13
2023-01-23T22:52:31.076Z,61.00
2023-01-23T22:54:57.501Z,66.43
2023-01-23T22:57:23.984Z,58.38
2023-01-23T22:59:50.426Z,55.15
2023-01-23T23:02:16.901Z,56.00
2023-01-23T23:04:43.306Z,55.15
2023-01-23T23:07:09.808Z,55.60
2023-01-23T23:09:36.310Z,57.40
2023-01-23T23:12:02.874Z,58.10
2023-01-23T23:14:29.320Z,59.45
2023-01-23T23:16:55.815Z,58.40
2023-01-23T23:19:22.266Z,50.80
2023-01-23T23:21:48.735Z,57.45
2023-01-23T23:24:15.195Z,55.92
2023-01-23T23:26:41.741Z,56.45
2023-01-23T23:29:08.425Z,57.03
2023-01-23T23:31:35.147Z,60.80
2023-01-23T23:34:02.025Z,69.70
2023-01-23T23:36:28.529Z,64.00
2023-01-23T23:38:55.068Z,57.05
2023-01-23T23:41:21.609Z,56.00
2023-01-23T23:43:48.042Z,55.72
2023-01-23T23:46:15.411Z,55.90
2023-01-23T23:48:42.780Z,63.85
2023-01-23T23:51:12.537Z,62.90
2023-01-23T23:53:39.301Z,59.88
2023-01-23T23:56:06.716Z,60.17
2023-01-23T23:58:36.774Z,61.63
